sensor_id;sensor_type;location;lat;lon;timestamp;temperature;humidity
19586;DHT22;9939;49.246;9.106;2024-01-27T00:00:10;1.50;99.90
19586;DHT22;9939;49.246;9.106;2024-01-27T00:02:37;1.40;99.90
19586;DHT22;9939;49.246;9.106;2024-01-27T00:05:04;1.30;99.90
19586;DHT22;9939;49.246;9.106;2024-01-27T00:07:31;1.30;99.90
19586;DHT22;9939;49.246;9.106;2024-01-27T00:09:58;1.20;99.90
19586;DHT22;9939;49.246;9.106;2024-01-27T00:12:26;1.20;99.90
19586;DHT22;9939;49.246;9.106;2024-01-27T00:14:53;1.10;99.90
19586;DHT22;9939;49.246;9.106;2024-01-27T00:17:20;1.10;99.90
19586;DHT22;9939;49.246;9.106;2024-01-27T00:19:52;1.10;99.90
19586;DHT22;9939;49.246;9.106;2024-01-27T00:22:18;1.10;99.90
19586;DHT22;9939;49.246;9.106;2024-01-27T00:24:47;1.00;99.90
19586;DHT22;9939;49.246;9.106;2024-01-27T00:27:14;1.10;99.90
19586;DHT22;9939;49.246;9.106;2024-01-27T00:29:41;1.10;99.90
19586;DHT22;9939;49.246;9.106;2024-01-27T00:32:08;1.00;99.90
19586;DHT22;9939;49.246;9.106;2024-01-27T00:34:35;1.00;99.90
19586;DHT22;9939;49.246;9.106;2024-01-27T00:37:02;1.00;99.90
19586;DHT22;9939;49.246;9.106;2024-01-27T00:39:28;0.90;99.90
19586;DHT22;9939;49.246;9.106;2024-01-27T00:41:55;0.80;99.90
19586;DHT22;9939;49.246;9.106;2024-01-27T00:44:25;0.80;99.90
19586;DHT22;9939;49.246;9.106;2024-01-27T00:46:51;0.90;99.90
19586;DHT22;9939;49.246;9.106;2024-01-27T00:49:18;0.90;99.90
19586;DHT22;9939;49.246;9.106;2024-01-27T00:51:45;0.80;99.90
19586;DHT22;9939;49.246;9.106;2024-01-27T00:54:12;0.80;99.90
19586;DHT22;9939;49.246;9.106;2024-01-27T00:56:39;0.80;99.90
19586;DHT22;9939;49.246;9.106;2024-01-27T00:59:06;0.80;99.90
19586;DHT22;9939;49.246;9.106;2024-01-27T01:01:33;0.70;99.90
19586;DHT22;9939;49.246;9.106;2024-01-27T01:04:00;0.70;99.90
19586;DHT22;9939;49.246;9.106;2024-01-27T01:06:27;0.90;99.90
19586;DHT22;9939;49.246;9.106;2024-01-27T01:08:54;1.10;99.90
19586;DHT22;9939;49.246;9.106;2024-01-27T01:11:21;1.10;99.90
19586;DHT22;9939;49.246;9.106;2024-01-27T01:13:48;1.00;99.90
19586;DHT22;9939;49.246;9.106;2024-01-27T01:16:15;1.00;99.90
19586;DHT22;9939;49.246;9.106;2024-01-27T01:18:41;1.10;99.90
19586;DHT22;9939;49.246;9.106;2024-01-27T01:21:08;1.10;99.90
19586;DHT22;9939;49.246;9.106;2024-01-27T01:23:35;1.10;99.90
19586;DHT22;9939;49.246;9.106;2024-01-27T01:26:02;1.20;99.90
19586;DHT22;9939;49.246;9.106;2024-01-27T01:28:29;1.20;99.90
19586;DHT22;9939;49.246;9.106;2024-01-27T01:30:58;1.20;99.90
19586;DHT22;9939;49.246;9.106;2024-01-27T01:33:25;1.10;99.90
19586;DHT22;9939;49.246;9.106;2024-01-27T01:35:52;1.10;99.90
19586;DHT22;9939;49.246;9.106;2024-01-27T01:38:20;1.00;99.90
19586;DHT22;9939;49.246;9.106;2024-01-27T01:40:46;0.90;99.90
19586;DHT22;9939;49.246;9.106;2024-01-27T01:43:13;0.90;99.90
19586;DHT22;9939;49.246;9.106;2024-01-27T01:45:40;0.80;99.90
19586;DHT22;9939;49.246;9.106;2024-01-27T01:48:07;0.80;99.90
19586;DHT22;9939;49.246;9.106;2024-01-27T01:50:35;0.70;99.90
19586;DHT22;9939;49.246;9.106;2024-01-27T01:53:03;0.70;99.90
19586;DHT22;9939;49.246;9.106;2024-01-27T01:55:30;0.70;99.90
19586;DHT22;9939;49.246;9.106;2024-01-27T01:57:57;0.60;99.90
19586;DHT22;9939;49.246;9.106;2024-01-27T02:00:24;0.60;99.90
19586;DHT22;9939;49.246;9.106;2024-01-27T02:02:51;0.50;99.90
19586;DHT22;9939;49.246;9.106;2024-01-27T02:05:18;0.60;99.90
19586;DHT22;9939;49.246;9.106;2024-01-27T02:07:45;0.60;99.90
19586;DHT22;9939;49.246;9.106;2024-01-27T02:10:16;0.70;99.90
19586;DHT22;9939;49.246;9.106;2024-01-27T02:12:44;0.60;99.90
19586;DHT22;9939;49.246;9.106;2024-01-27T02:15:12;0.60;99.90
19586;DHT22;9939;49.246;9.106;2024-01-27T02:17:41;0.60;99.90
19586;DHT22;9939;49.246;9.106;2024-01-27T02:20:09;0.60;99.90
19586;DHT22;9939;49.246;9.106;2024-01-27T02:22:36;0.70;99.90
19586;DHT22;9939;49.246;9.106;2024-01-27T02:25:03;0.70;99.90
19586;DHT22;9939;49.246;9.106;2024-01-27T02:27:30;0.80;99.90
19586;DHT22;9939;49.246;9.106;2024-01-27T02:29:57;0.80;99.90
19586;DHT22;9939;49.246;9.106;2024-01-27T02:32:24;0.60;99.90
19586;DHT22;9939;49.246;9.106;2024-01-27T02:34:51;0.60;99.90
19586;DHT22;9939;49.246;9.106;2024-01-27T02:37:18;0.60;99.90
19586;DHT22;9939;49.246;9.106;2024-01-27T02:39:45;0.60;99.90
19586;DHT22;9939;49.246;9.106;2024-01-27T02:42:12;0.70;99.90
19586;DHT22;9939;49.246;9.106;2024-01-27T02:44:39;0.50;99.90
19586;DHT22;9939;49.246;9.106;2024-01-27T02:47:06;0.50;99.90
19586;DHT22;9939;49.246;9.106;2024-01-27T02:49:33;0.40;99.90
19586;DHT22;9939;49.246;9.106;2024-01-27T02:52:00;0.40;99.90
19586;DHT22;9939;49.246;9.106;2024-01-27T02:54:27;0.30;99.90
19586;DHT22;9939;49.246;9.106;2024-01-27T02:56:54;0.30;99.90
19586;DHT22;9939;49.246;9.106;2024-01-27T02:59:21;0.20;99.90
19586;DHT22;9939;49.246;9.106;2024-01-27T03:01:48;0.10;99.90
19586;DHT22;9939;49.246;9.106;2024-01-27T03:04:15;0.10;99.90
19586;DHT22;9939;49.246;9.106;2024-01-27T03:06:42;0.10;99.90
19586;DHT22;9939;49.246;9.106;2024-01-27T03:09:09;0.00;99.90
19586;DHT22;9939;49.246;9.106;2024-01-27T03:11:37;0.00;99.90
19586;DHT22;9939;49.246;9.106;2024-01-27T03:14:04;-0.10;99.90
19586;DHT22;9939;49.246;9.106;2024-01-27T03:16:31;0.10;99.90
19586;DHT22;9939;49.246;9.106;2024-01-27T03:18:59;0.10;99.90
19586;DHT22;9939;49.246;9.106;2024-01-27T03:21:26;0.20;99.90
19586;DHT22;9939;49.246;9.106;2024-01-27T03:23:53;0.10;99.90
19586;DHT22;9939;49.246;9.106;2024-01-27T03:26:20;0.20;99.90
19586;DHT22;9939;49.246;9.106;2024-01-27T03:28:47;0.20;99.90
19586;DHT22;9939;49.246;9.106;2024-01-27T03:31:14;0.20;99.90
19586;DHT22;9939;49.246;9.106;2024-01-27T03:33:41;0.40;99.90
19586;DHT22;9939;49.246;9.106;2024-01-27T03:36:12;0.30;99.90
19586;DHT22;9939;49.246;9.106;2024-01-27T03:38:42;0.20;99.90
19586;DHT22;9939;49.246;9.106;2024-01-27T03:41:09;0.00;99.90
19586;DHT22;9939;49.246;9.106;2024-01-27T03:43:36;-0.10;99.90
19586;DHT22;9939;49.246;9.106;2024-01-27T03:46:03;-0.10;99.90
19586;DHT22;9939;49.246;9.106;2024-01-27T03:48:30;-0.20;99.90
19586;DHT22;9939;49.246;9.106;2024-01-27T03:50:58;-0.10;99.90
19586;DHT22;9939;49.246;9.106;2024-01-27T03:53:24;-0.20;99.90
19586;DHT22;9939;49.246;9.106;2024-01-27T03:55:52;-0.30;99.90
19586;DHT22;9939;49.246;9.106;2024-01-27T03:58:19;-0.10;99.90
19586;DHT22;9939;49.246;9.106;2024-01-27T04:00:46;-0.20;99.90
19586;DHT22;9939;49.246;9.106;2024-01-27T04:03:13;-0.30;99.90
19586;DHT22;9939;49.246;9.106;2024-01-27T04:05:40;-0.40;99.90
19586;DHT22;9939;49.246;9.106;2024-01-27T04:08:07;-0.50;99.90
19586;DHT22;9939;49.246;9.106;2024-01-27T04:10:34;-0.40;99.90
19586;DHT22;9939;49.246;9.106;2024-01-27T04:13:01;-0.50;99.90
19586;DHT22;9939;49.246;9.106;2024-01-27T04:15:27;-0.50;99.90
19586;DHT22;9939;49.246;9.106;2024-01-27T04:17:55;-0.30;99.90
19586;DHT22;9939;49.246;9.106;2024-01-27T04:20:22;-0.30;99.90
19586;DHT22;9939;49.246;9.106;2024-01-27T04:22:49;-0.30;99.90
19586;DHT22;9939;49.246;9.106;2024-01-27T04:25:16;-0.40;99.90
19586;DHT22;9939;49.246;9.106;2024-01-27T04:27:43;-0.50;99.90
19586;DHT22;9939;49.246;9.106;2024-01-27T04:30:11;-0.60;99.90
19586;DHT22;9939;49.246;9.106;2024-01-27T04:32:38;-0.60;99.90
19586;DHT22;9939;49.246;9.106;2024-01-27T04:35:09;-0.50;99.90
19586;DHT22;9939;49.246;9.106;2024-01-27T04:37:36;-0.40;99.90
19586;DHT22;9939;49.246;9.106;2024-01-27T04:40:06;-0.50;99.90
19586;DHT22;9939;49.246;9.106;2024-01-27T04:42:34;-0.60;99.90
19586;DHT22;9939;49.246;9.106;2024-01-27T04:45:01;-0.70;99.90
19586;DHT22;9939;49.246;9.106;2024-01-27T04:47:29;-0.60;99.90
19586;DHT22;9939;49.246;9.106;2024-01-27T04:49:56;-0.60;99.90
19586;DHT22;9939;49.246;9.106;2024-01-27T04:52:24;-0.60;99.90
19586;DHT22;9939;49.246;9.106;2024-01-27T04:54:51;-0.60;99.90
19586;DHT22;9939;49.246;9.106;2024-01-27T04:57:18;-0.60;99.90
19586;DHT22;9939;49.246;9.106;2024-01-27T04:59:44;-0.60;99.90
19586;DHT22;9939;49.246;9.106;2024-01-27T05:02:11;-0.60;99.90
19586;DHT22;9939;49.246;9.106;2024-01-27T05:04:38;-0.60;99.90
19586;DHT22;9939;49.246;9.106;2024-01-27T05:07:06;-0.70;99.90
19586;DHT22;9939;49.246;9.106;2024-01-27T05:09:34;-0.80;99.90
19586;DHT22;9939;49.246;9.106;2024-01-27T05:12:01;-0.80;99.90
19586;DHT22;9939;49.246;9.106;2024-01-27T05:14:29;-0.90;99.90
19586;DHT22;9939;49.246;9.106;2024-01-27T05:16:56;-1.00;99.90
19586;DHT22;9939;49.246;9.106;2024-01-27T05:19:23;-1.00;99.90
19586;DHT22;9939;49.246;9.106;2024-01-27T05:21:50;-0.90;99.90
19586;DHT22;9939;49.246;9.106;2024-01-27T05:24:16;-1.00;99.90
19586;DHT22;9939;49.246;9.106;2024-01-27T05:26:43;-0.90;99.90
19586;DHT22;9939;49.246;9.106;2024-01-27T05:29:10;-0.80;99.90
19586;DHT22;9939;49.246;9.106;2024-01-27T05:31:37;-0.90;99.90
19586;DHT22;9939;49.246;9.106;2024-01-27T05:34:04;-0.80;99.90
19586;DHT22;9939;49.246;9.106;2024-01-27T05:36:31;-0.80;99.90
19586;DHT22;9939;49.246;9.106;2024-01-27T05:38:58;-0.80;99.90
19586;DHT22;9939;49.246;9.106;2024-01-27T05:41:26;-0.70;99.90
19586;DHT22;9939;49.246;9.106;2024-01-27T05:43:56;-0.90;99.90
19586;DHT22;9939;49.246;9.106;2024-01-27T05:46:26;-0.90;99.90
19586;DHT22;9939;49.246;9.106;2024-01-27T05:48:53;-0.90;99.90
19586;DHT22;9939;49.246;9.106;2024-01-27T05:51:28;-1.00;99.90
19586;DHT22;9939;49.246;9.106;2024-01-27T05:53:57;-1.10;99.90
19586;DHT22;9939;49.246;9.106;2024-01-27T05:56:23;-0.90;99.90
19586;DHT22;9939;49.246;9.106;2024-01-27T05:58:50;-1.00;99.90
19586;DHT22;9939;49.246;9.106;2024-01-27T06:01:18;-1.00;99.90
19586;DHT22;9939;49.246;9.106;2024-01-27T06:03:46;-1.00;99.90
19586;DHT22;9939;49.246;9.106;2024-01-27T06:06:13;-0.90;99.90
19586;DHT22;9939;49.246;9.106;2024-01-27T06:08:41;-0.90;99.90
19586;DHT22;9939;49.246;9.106;2024-01-27T06:11:08;-1.10;99.90
19586;DHT22;9939;49.246;9.106;2024-01-27T06:13:36;-1.10;99.90
19586;DHT22;9939;49.246;9.106;2024-01-27T06:16:09;-1.10;99.90
19586;DHT22;9939;49.246;9.106;2024-01-27T06:18:36;-1.20;99.90
19586;DHT22;9939;49.246;9.106;2024-01-27T06:21:05;-1.20;99.90
19586;DHT22;9939;49.246;9.106;2024-01-27T06:23:33;-1.20;99.90
19586;DHT22;9939;49.246;9.106;2024-01-27T06:26:07;-1.20;99.90
19586;DHT22;9939;49.246;9.106;2024-01-27T06:28:35;-1.20;99.90
19586;DHT22;9939;49.246;9.106;2024-01-27T06:31:03;-1.30;99.90
19586;DHT22;9939;49.246;9.106;2024-01-27T06:33:30;-1.30;99.90
19586;DHT22;9939;49.246;9.106;2024-01-27T06:35:57;-1.40;99.90
19586;DHT22;9939;49.246;9.106;2024-01-27T06:38:24;-1.40;99.90
19586;DHT22;9939;49.246;9.106;2024-01-27T06:40:51;-1.40;99.90
19586;DHT22;9939;49.246;9.106;2024-01-27T06:43:18;-1.40;99.90
19586;DHT22;9939;49.246;9.106;2024-01-27T06:45:45;-1.30;99.90
19586;DHT22;9939;49.246;9.106;2024-01-27T06:48:12;-1.20;99.90
19586;DHT22;9939;49.246;9.106;2024-01-27T06:50:39;-1.30;99.90
19586;DHT22;9939;49.246;9.106;2024-01-27T06:53:06;-1.40;99.90
19586;DHT22;9939;49.246;9.106;2024-01-27T06:55:33;-1.40;99.90
19586;DHT22;9939;49.246;9.106;2024-01-27T06:58:00;-1.40;99.90
19586;DHT22;9939;49.246;9.106;2024-01-27T07:00:27;-1.50;99.90
19586;DHT22;9939;49.246;9.106;2024-01-27T07:02:54;-1.50;99.90
19586;DHT22;9939;49.246;9.106;2024-01-27T07:05:22;-1.40;99.90
19586;DHT22;9939;49.246;9.106;2024-01-27T07:07:49;-1.50;99.90
19586;DHT22;9939;49.246;9.106;2024-01-27T07:10:16;-1.50;99.90
19586;DHT22;9939;49.246;9.106;2024-01-27T07:12:43;-1.40;99.90
19586;DHT22;9939;49.246;9.106;2024-01-27T07:15:10;-1.40;99.90
19586;DHT22;9939;49.246;9.106;2024-01-27T07:17:37;-1.30;99.90
19586;DHT22;9939;49.246;9.106;2024-01-27T07:20:04;-1.30;99.90
19586;DHT22;9939;49.246;9.106;2024-01-27T07:22:32;-1.30;99.90
19586;DHT22;9939;49.246;9.106;2024-01-27T07:25:00;-1.20;99.90
19586;DHT22;9939;49.246;9.106;2024-01-27T07:27:26;-1.20;99.90
19586;DHT22;9939;49.246;9.106;2024-01-27T07:29:53;-1.10;99.90
19586;DHT22;9939;49.246;9.106;2024-01-27T07:32:20;-1.10;99.90
19586;DHT22;9939;49.246;9.106;2024-01-27T07:34:48;-0.80;99.90
19586;DHT22;9939;49.246;9.106;2024-01-27T07:37:15;-0.70;99.90
19586;DHT22;9939;49.246;9.106;2024-01-27T07:39:42;-0.70;99.90
19586;DHT22;9939;49.246;9.106;2024-01-27T07:42:09;-0.80;99.90
19586;DHT22;9939;49.246;9.106;2024-01-27T07:44:36;-0.70;99.90
19586;DHT22;9939;49.246;9.106;2024-01-27T07:47:03;-0.70;99.90
19586;DHT22;9939;49.246;9.106;2024-01-27T07:49:30;-0.70;99.90
19586;DHT22;9939;49.246;9.106;2024-01-27T07:51:57;-0.60;99.90
19586;DHT22;9939;49.246;9.106;2024-01-27T07:54:24;-0.40;99.90
19586;DHT22;9939;49.246;9.106;2024-01-27T07:56:51;-0.50;99.90
19586;DHT22;9939;49.246;9.106;2024-01-27T07:59:18;-0.40;99.90
19586;DHT22;9939;49.246;9.106;2024-01-27T08:01:46;-0.40;99.90
19586;DHT22;9939;49.246;9.106;2024-01-27T08:04:12;-0.40;99.90
19586;DHT22;9939;49.246;9.106;2024-01-27T08:06:50;-0.30;99.90
19586;DHT22;9939;49.246;9.106;2024-01-27T08:09:18;-0.20;99.90
19586;DHT22;9939;49.246;9.106;2024-01-27T08:11:45;-0.20;99.90
19586;DHT22;9939;49.246;9.106;2024-01-27T08:14:12;-0.20;99.90
19586;DHT22;9939;49.246;9.106;2024-01-27T08:16:39;-0.10;99.90
19586;DHT22;9939;49.246;9.106;2024-01-27T08:19:06;-0.20;99.90
19586;DHT22;9939;49.246;9.106;2024-01-27T08:21:33;-0.10;99.90
19586;DHT22;9939;49.246;9.106;2024-01-27T08:24:00;0.00;99.90
19586;DHT22;9939;49.246;9.106;2024-01-27T08:26:27;0.10;99.90
19586;DHT22;9939;49.246;9.106;2024-01-27T08:28:53;0.20;99.90
19586;DHT22;9939;49.246;9.106;2024-01-27T08:31:22;0.30;99.90
19586;DHT22;9939;49.246;9.106;2024-01-27T08:33:49;0.40;99.90
19586;DHT22;9939;49.246;9.106;2024-01-27T08:36:17;0.30;99.90
19586;DHT22;9939;49.246;9.106;2024-01-27T08:38:44;0.50;99.90
19586;DHT22;9939;49.246;9.106;2024-01-27T08:41:12;0.60;99.90
19586;DHT22;9939;49.246;9.106;2024-01-27T08:43:39;0.70;99.90
19586;DHT22;9939;49.246;9.106;2024-01-27T08:46:06;0.70;99.90
19586;DHT22;9939;49.246;9.106;2024-01-27T08:48:38;0.70;99.90
19586;DHT22;9939;49.246;9.106;2024-01-27T08:51:05;1.00;99.90
19586;DHT22;9939;49.246;9.106;2024-01-27T08:53:34;1.10;99.90
19586;DHT22;9939;49.246;9.106;2024-01-27T08:56:01;1.30;99.90
19586;DHT22;9939;49.246;9.106;2024-01-27T08:58:28;1.70;99.90
19586;DHT22;9939;49.246;9.106;2024-01-27T09:00:55;2.90;99.90
19586;DHT22;9939;49.246;9.106;2024-01-27T09:03:22;4.30;99.90
19586;DHT22;9939;49.246;9.106;2024-01-27T09:05:49;5.50;99.90
19586;DHT22;9939;49.246;9.106;2024-01-27T09:08:16;6.90;99.90
19586;DHT22;9939;49.246;9.106;2024-01-27T09:10:43;8.20;99.90
19586;DHT22;9939;49.246;9.106;2024-01-27T09:13:10;9.30;99.90
19586;DHT22;9939;49.246;9.106;2024-01-27T09:15:37;10.80;99.90
19586;DHT22;9939;49.246;9.106;2024-01-27T09:18:04;11.00;99.90
19586;DHT22;9939;49.246;9.106;2024-01-27T09:20:32;11.60;99.90
19586;DHT22;9939;49.246;9.106;2024-01-27T09:22:59;11.60;99.90
19586;DHT22;9939;49.246;9.106;2024-01-27T09:25:26;12.40;99.90
19586;DHT22;9939;49.246;9.106;2024-01-27T09:27:53;12.80;99.90
19586;DHT22;9939;49.246;9.106;2024-01-27T09:30:19;12.20;99.90
19586;DHT22;9939;49.246;9.106;2024-01-27T09:32:47;13.00;99.90
19586;DHT22;9939;49.246;9.106;2024-01-27T09:35:14;14.00;99.90
19586;DHT22;9939;49.246;9.106;2024-01-27T09:37:41;13.60;99.90
19586;DHT22;9939;49.246;9.106;2024-01-27T09:40:10;14.20;99.90
19586;DHT22;9939;49.246;9.106;2024-01-27T09:42:38;13.60;99.90
19586;DHT22;9939;49.246;9.106;2024-01-27T09:45:06;15.20;99.90
19586;DHT22;9939;49.246;9.106;2024-01-27T09:47:36;14.80;99.90
19586;DHT22;9939;49.246;9.106;2024-01-27T09:50:03;15.20;99.90
19586;DHT22;9939;49.246;9.106;2024-01-27T09:52:31;14.90;99.90
19586;DHT22;9939;49.246;9.106;2024-01-27T09:54:58;16.10;99.90
19586;DHT22;9939;49.246;9.106;2024-01-27T09:57:25;15.80;99.90
19586;DHT22;9939;49.246;9.106;2024-01-27T09:59:52;15.60;99.90
19586;DHT22;9939;49.246;9.106;2024-01-27T10:02:20;15.60;99.90
19586;DHT22;9939;49.246;9.106;2024-01-27T10:04:48;14.50;99.90
19586;DHT22;9939;49.246;9.106;2024-01-27T10:07:15;13.70;99.90
19586;DHT22;9939;49.246;9.106;2024-01-27T10:09:43;14.30;99.90
19586;DHT22;9939;49.246;9.106;2024-01-27T10:12:12;14.40;99.90
19586;DHT22;9939;49.246;9.106;2024-01-27T10:14:40;15.60;99.90
19586;DHT22;9939;49.246;9.106;2024-01-27T10:17:11;15.20;99.90
19586;DHT22;9939;49.246;9.106;2024-01-27T10:19:38;15.40;99.90
19586;DHT22;9939;49.246;9.106;2024-01-27T10:22:11;14.90;99.90
19586;DHT22;9939;49.246;9.106;2024-01-27T10:24:38;14.50;99.90
19586;DHT22;9939;49.246;9.106;2024-01-27T10:27:06;16.30;99.90
19586;DHT22;9939;49.246;9.106;2024-01-27T10:29:33;15.90;99.90
19586;DHT22;9939;49.246;9.106;2024-01-27T10:32:08;15.70;99.90
19586;DHT22;9939;49.246;9.106;2024-01-27T10:34:35;17.80;99.90
19586;DHT22;9939;49.246;9.106;2024-01-27T10:37:02;17.60;99.90
19586;DHT22;9939;49.246;9.106;2024-01-27T10:39:29;17.80;99.90
19586;DHT22;9939;49.246;9.106;2024-01-27T10:42:00;17.00;99.90
19586;DHT22;9939;49.246;9.106;2024-01-27T10:44:29;16.60;99.90
19586;DHT22;9939;49.246;9.106;2024-01-27T10:46:56;17.40;99.90
19586;DHT22;9939;49.246;9.106;2024-01-27T10:49:27;17.50;99.90
19586;DHT22;9939;49.246;9.106;2024-01-27T10:51:55;16.20;99.90
19586;DHT22;9939;49.246;9.106;2024-01-27T10:54:26;16.40;99.90
19586;DHT22;9939;49.246;9.106;2024-01-27T10:56:57;16.30;99.90
19586;DHT22;9939;49.246;9.106;2024-01-27T10:59:30;16.40;99.90
19586;DHT22;9939;49.246;9.106;2024-01-27T11:01:58;16.00;99.90
19586;DHT22;9939;49.246;9.106;2024-01-27T11:04:27;14.70;99.90
19586;DHT22;9939;49.246;9.106;2024-01-27T11:06:55;13.80;99.90
19586;DHT22;9939;49.246;9.106;2024-01-27T11:09:24;13.10;99.90
19586;DHT22;9939;49.246;9.106;2024-01-27T11:11:52;12.10;99.90
19586;DHT22;9939;49.246;9.106;2024-01-27T11:14:19;11.90;99.90
19586;DHT22;9939;49.246;9.106;2024-01-27T11:16:46;12.20;99.90
19586;DHT22;9939;49.246;9.106;2024-01-27T11:19:17;14.10;99.90
19586;DHT22;9939;49.246;9.106;2024-01-27T11:21:45;13.70;99.90
19586;DHT22;9939;49.246;9.106;2024-01-27T11:24:16;14.40;99.90
19586;DHT22;9939;49.246;9.106;2024-01-27T11:26:43;14.70;99.90
19586;DHT22;9939;49.246;9.106;2024-01-27T11:29:10;14.60;99.90
19586;DHT22;9939;49.246;9.106;2024-01-27T11:31:47;14.30;99.90
19586;DHT22;9939;49.246;9.106;2024-01-27T11:34:14;14.50;99.90
19586;DHT22;9939;49.246;9.106;2024-01-27T11:36:45;14.50;99.90
19586;DHT22;9939;49.246;9.106;2024-01-27T11:39:28;14.80;99.90
19586;DHT22;9939;49.246;9.106;2024-01-27T11:42:06;15.00;99.90
19586;DHT22;9939;49.246;9.106;2024-01-27T11:44:37;14.00;99.90
19586;DHT22;9939;49.246;9.106;2024-01-27T11:47:05;15.50;99.90
19586;DHT22;9939;49.246;9.106;2024-01-27T11:49:33;16.00;99.90
19586;DHT22;9939;49.246;9.106;2024-01-27T11:52:00;17.20;99.90
19586;DHT22;9939;49.246;9.106;2024-01-27T11:54:27;17.30;99.90
19586;DHT22;9939;49.246;9.106;2024-01-27T11:56:54;18.10;99.90
19586;DHT22;9939;49.246;9.106;2024-01-27T11:59:21;17.10;99.90
19586;DHT22;9939;49.246;9.106;2024-01-27T12:01:49;16.90;99.90
19586;DHT22;9939;49.246;9.106;2024-01-27T12:04:16;15.90;99.90
19586;DHT22;9939;49.246;9.106;2024-01-27T12:06:43;16.70;99.90
19586;DHT22;9939;49.246;9.106;2024-01-27T12:09:10;17.50;99.90
19586;DHT22;9939;49.246;9.106;2024-01-27T12:11:40;18.60;99.90
19586;DHT22;9939;49.246;9.106;2024-01-27T12:14:08;18.40;99.90
19586;DHT22;9939;49.246;9.106;2024-01-27T12:16:35;18.20;99.90
19586;DHT22;9939;49.246;9.106;2024-01-27T12:19:02;17.70;99.90
19586;DHT22;9939;49.246;9.106;2024-01-27T12:21:29;19.30;99.90
19586;DHT22;9939;49.246;9.106;2024-01-27T12:23:57;20.40;99.90
19586;DHT22;9939;49.246;9.106;2024-01-27T12:26:29;18.30;99.90
19586;DHT22;9939;49.246;9.106;2024-01-27T12:28:56;17.20;99.90
19586;DHT22;9939;49.246;9.106;2024-01-27T12:31:24;18.90;99.90
19586;DHT22;9939;49.246;9.106;2024-01-27T12:33:54;18.00;99.90
19586;DHT22;9939;49.246;9.106;2024-01-27T12:36:22;16.50;99.90
19586;DHT22;9939;49.246;9.106;2024-01-27T12:39:00;15.50;99.90
19586;DHT22;9939;49.246;9.106;2024-01-27T12:41:28;14.30;99.90
19586;DHT22;9939;49.246;9.106;2024-01-27T12:43:56;15.40;99.90
19586;DHT22;9939;49.246;9.106;2024-01-27T12:46:23;15.50;99.90
19586;DHT22;9939;49.246;9.106;2024-01-27T12:48:51;15.40;99.90
19586;DHT22;9939;49.246;9.106;2024-01-27T12:51:19;15.00;99.90
19586;DHT22;9939;49.246;9.106;2024-01-27T12:53:47;16.10;99.90
19586;DHT22;9939;49.246;9.106;2024-01-27T12:56:14;16.30;99.90
19586;DHT22;9939;49.246;9.106;2024-01-27T12:58:42;16.80;99.90
19586;DHT22;9939;49.246;9.106;2024-01-27T13:01:09;15.50;99.90
19586;DHT22;9939;49.246;9.106;2024-01-27T13:03:36;13.90;99.90
19586;DHT22;9939;49.246;9.106;2024-01-27T13:06:05;12.10;99.90
19586;DHT22;9939;49.246;9.106;2024-01-27T13:08:33;11.10;99.90
19586;DHT22;9939;49.246;9.106;2024-01-27T13:11:00;11.20;99.90
19586;DHT22;9939;49.246;9.106;2024-01-27T13:13:27;10.90;99.90
19586;DHT22;9939;49.246;9.106;2024-01-27T13:15:53;10.30;99.90
19586;DHT22;9939;49.246;9.106;2024-01-27T13:18:20;10.50;99.90
19586;DHT22;9939;49.246;9.106;2024-01-27T13:20:48;10.40;99.90
19586;DHT22;9939;49.246;9.106;2024-01-27T13:23:14;10.40;99.90
19586;DHT22;9939;49.246;9.106;2024-01-27T13:25:41;10.10;99.90
19586;DHT22;9939;49.246;9.106;2024-01-27T13:28:23;9.90;99.90
19586;DHT22;9939;49.246;9.106;2024-01-27T13:30:50;9.90;99.90
19586;DHT22;9939;49.246;9.106;2024-01-27T13:33:17;9.30;99.90
19586;DHT22;9939;49.246;9.106;2024-01-27T13:35:44;9.30;99.90
19586;DHT22;9939;49.246;9.106;2024-01-27T13:38:13;9.30;99.90
19586;DHT22;9939;49.246;9.106;2024-01-27T13:40:41;9.10;99.90
19586;DHT22;9939;49.246;9.106;2024-01-27T13:43:08;8.90;99.90
19586;DHT22;9939;49.246;9.106;2024-01-27T13:45:35;9.00;99.90
19586;DHT22;9939;49.246;9.106;2024-01-27T13:48:02;9.00;99.90
19586;DHT22;9939;49.246;9.106;2024-01-27T13:50:29;9.10;99.90
19586;DHT22;9939;49.246;9.106;2024-01-27T13:52:58;8.80;99.90
19586;DHT22;9939;49.246;9.106;2024-01-27T13:55:25;8.80;99.90
19586;DHT22;9939;49.246;9.106;2024-01-27T13:57:53;8.60;99.90
19586;DHT22;9939;49.246;9.106;2024-01-27T14:00:20;8.40;99.90
19586;DHT22;9939;49.246;9.106;2024-01-27T14:02:48;8.20;99.90
19586;DHT22;9939;49.246;9.106;2024-01-27T14:05:15;8.30;99.90
19586;DHT22;9939;49.246;9.106;2024-01-27T14:07:42;8.30;99.90
19586;DHT22;9939;49.246;9.106;2024-01-27T14:10:09;8.10;99.90
19586;DHT22;9939;49.246;9.106;2024-01-27T14:12:36;7.80;99.90
19586;DHT22;9939;49.246;9.106;2024-01-27T14:15:04;7.70;99.90
19586;DHT22;9939;49.246;9.106;2024-01-27T14:17:35;7.70;99.90
19586;DHT22;9939;49.246;9.106;2024-01-27T14:20:03;7.70;99.90
19586;DHT22;9939;49.246;9.106;2024-01-27T14:22:31;7.60;99.90
19586;DHT22;9939;49.246;9.106;2024-01-27T14:24:57;7.60;99.90
19586;DHT22;9939;49.246;9.106;2024-01-27T14:27:24;7.60;99.90
19586;DHT22;9939;49.246;9.106;2024-01-27T14:29:57;7.70;99.90
19586;DHT22;9939;49.246;9.106;2024-01-27T14:32:24;7.70;99.90
19586;DHT22;9939;49.246;9.106;2024-01-27T14:34:51;7.70;99.90
19586;DHT22;9939;49.246;9.106;2024-01-27T14:37:18;7.60;99.90
19586;DHT22;9939;49.246;9.106;2024-01-27T14:39:46;7.70;99.90
19586;DHT22;9939;49.246;9.106;2024-01-27T14:42:14;7.60;99.90
19586;DHT22;9939;49.246;9.106;2024-01-27T14:44:41;7.50;99.90
19586;DHT22;9939;49.246;9.106;2024-01-27T14:47:08;7.50;99.90
19586;DHT22;9939;49.246;9.106;2024-01-27T14:49:36;7.50;99.90
19586;DHT22;9939;49.246;9.106;2024-01-27T14:52:07;7.50;99.90
19586;DHT22;9939;49.246;9.106;2024-01-27T14:54:34;7.40;99.90
19586;DHT22;9939;49.246;9.106;2024-01-27T14:57:04;7.20;99.90
19586;DHT22;9939;49.246;9.106;2024-01-27T14:59:31;7.20;99.90
19586;DHT22;9939;49.246;9.106;2024-01-27T15:01:58;7.10;99.90
19586;DHT22;9939;49.246;9.106;2024-01-27T15:04:25;7.10;99.90
19586;DHT22;9939;49.246;9.106;2024-01-27T15:06:56;7.10;99.90
19586;DHT22;9939;49.246;9.106;2024-01-27T15:09:24;7.10;99.90
19586;DHT22;9939;49.246;9.106;2024-01-27T15:11:51;7.20;99.90
19586;DHT22;9939;49.246;9.106;2024-01-27T15:14:18;7.40;99.90
19586;DHT22;9939;49.246;9.106;2024-01-27T15:16:46;7.40;99.90
19586;DHT22;9939;49.246;9.106;2024-01-27T15:19:13;7.30;99.90
19586;DHT22;9939;49.246;9.106;2024-01-27T15:21:40;7.30;99.90
19586;DHT22;9939;49.246;9.106;2024-01-27T15:24:07;7.10;99.90
19586;DHT22;9939;49.246;9.106;2024-01-27T15:26:34;6.90;99.90
19586;DHT22;9939;49.246;9.106;2024-01-27T15:29:01;6.70;99.90
19586;DHT22;9939;49.246;9.106;2024-01-27T15:31:28;6.50;99.90
19586;DHT22;9939;49.246;9.106;2024-01-27T15:33:55;6.40;99.90
19586;DHT22;9939;49.246;9.106;2024-01-27T15:36:22;6.40;99.90
19586;DHT22;9939;49.246;9.106;2024-01-27T15:38:48;6.20;99.90
19586;DHT22;9939;49.246;9.106;2024-01-27T15:41:15;6.00;99.90
19586;DHT22;9939;49.246;9.106;2024-01-27T15:43:45;5.90;99.90
19586;DHT22;9939;49.246;9.106;2024-01-27T15:46:14;5.80;99.90
19586;DHT22;9939;49.246;9.106;2024-01-27T15:48:41;5.50;99.90
19586;DHT22;9939;49.246;9.106;2024-01-27T15:51:09;5.40;99.90
19586;DHT22;9939;49.246;9.106;2024-01-27T15:53:36;5.20;99.90